Time;durP1;ratioP1;P1;durP2;ratioP2;P2;SDS_P1;SDS_P2;PMS_P1;PMS_P2;Temp;Humidity;BMP_temperature;BMP_pressure;BME280_temperature;BME280_humidity;BME280_pressure;Samples;Min_cycle;Max_cycle;Signal;HPM_P1;HPM_P2
2024/02/09 00:04:19;;;;;;;17.13;5.05;;;;;;;14.89;100.00;101083.84;10554175;28;20054;-81
2024/02/09 00:09:42;;;;;;;17.67;6.68;;;;;;;14.98;100.00;101089.16;10565683;28;20056;-80
2024/02/09 00:15:06;;;;;;;22.52;6.25;;;;;;;14.92;100.00;101099.78;10605444;27;20046;-80
2024/02/09 00:20:30;;;;;;;24.75;6.65;;;;;;;14.74;100.00;101099.72;10645762;27;20494;-81
2024/02/09 00:25:53;;;;;;;21.25;6.78;;;;;;;14.75;100.00;101106.81;10632679;27;20122;-82
2024/02/09 00:31:17;;;;;;;16.05;5.65;;;;;;;14.70;100.00;101111.25;10618149;27;20055;-81
2024/02/09 00:36:44;;;;;;;12.07;5.57;;;;;;;14.86;100.00;101098.88;10619628;27;20047;-82
2024/02/09 00:42:11;;;;;;;18.40;6.57;;;;;;;14.72;100.00;101106.78;10632885;27;20049;-80
2024/02/09 00:47:34;;;;;;;16.05;5.97;;;;;;;14.54;100.00;101101.41;10605826;27;20084;-82
2024/02/09 00:53:04;;;;;;;16.88;5.85;;;;;;;14.47;100.00;101095.16;10609912;27;20442;-81
2024/02/09 00:58:26;;;;;;;20.13;7.00;;;;;;;14.38;100.00;101092.47;10635335;27;20087;-81
2024/02/09 01:03:49;;;;;;;22.05;5.50;;;;;;;14.34;100.00;101094.19;10615375;27;20065;-82
2024/02/09 01:09:13;;;;;;;18.10;5.30;;;;;;;14.24;100.00;101096.78;10591070;27;20103;-82
2024/02/09 02:45:32;;;;;;;17.90;5.85;;;;;;;12.96;100.00;101103.59;10548077;28;20123;-81
2024/02/09 03:07:57;;;;;;;11.95;4.80;;;;;;;12.68;100.00;101115.63;10553760;28;20426;-81
2024/02/09 03:13:21;;;;;;;13.93;4.70;;;;;;;12.78;100.00;101109.56;10573100;28;20071;-81
2024/02/09 03:18:44;;;;;;;16.15;5.57;;;;;;;12.60;100.00;101111.13;10590369;28;20128;-81
2024/02/09 03:24:08;;;;;;;15.73;5.43;;;;;;;12.34;100.00;101108.97;10599139;28;20039;-80
2024/02/09 03:29:31;;;;;;;15.40;5.70;;;;;;;12.50;100.00;101115.38;10593639;28;20137;-80
2024/02/09 03:34:53;;;;;;;15.07;4.80;;;;;;;12.40;100.00;101118.78;10586026;28;20043;-81
2024/02/09 03:40:17;;;;;;;15.55;5.47;;;;;;;12.20;100.00;101122.91;10563809;28;20453;-80
2024/02/09 03:45:41;;;;;;;13.55;5.53;;;;;;;12.15;100.00;101129.88;10583716;28;20373;-80
2024/02/09 03:51:06;;;;;;;16.05;5.78;;;;;;;12.04;100.00;101119.13;10563264;28;20094;-82
2024/02/09 03:56:35;;;;;;;17.13;6.22;;;;;;;12.02;100.00;101119.97;10577145;28;20062;-82
2024/02/09 04:02:07;;;;;;;14.10;5.55;;;;;;;11.92;100.00;101113.66;10577769;28;20047;-82
2024/02/09 04:07:29;;;;;;;15.32;5.47;;;;;;;11.86;100.00;101117.09;10577192;28;20050;-81
2024/02/09 04:12:53;;;;;;;17.33;5.80;;;;;;;11.93;100.00;101121.63;10530629;28;1287010;-81
2024/02/09 04:18:16;;;;;;;17.00;7.75;;;;;;;11.96;100.00;101126.94;10601966;28;20047;-81
2024/02/09 04:23:39;;;;;;;16.02;6.75;;;;;;;12.00;100.00;101127.91;10603381;28;20051;-81
2024/02/09 04:29:04;;;;;;;19.25;7.53;;;;;;;11.91;100.00;101139.22;10606881;28;20061;-81
2024/02/09 04:34:26;;;;;;;15.02;5.85;;;;;;;11.87;100.00;101137.41;10591700;28;20095;-80
2024/02/09 04:39:49;;;;;;;20.15;6.57;;;;;;;11.82;100.00;101151.38;10600902;28;20188;-81
2024/02/09 04:45:13;;;;;;;16.33;6.35;;;;;;;11.86;100.00;101151.47;10592479;27;20574;-82
2024/02/09 04:50:36;;;;;;;10.98;5.60;;;;;;;12.02;100.00;101155.25;10593312;27;20051;-81
2024/02/09 04:55:58;;;;;;;13.57;5.43;;;;;;;12.04;100.00;101160.56;10610863;27;20672;-80
2024/02/09 05:01:30;;;;;;;16.20;6.20;;;;;;;11.72;100.00;101158.25;10619130;27;20066;-80
2024/02/09 05:06:52;;;;;;;15.45;6.15;;;;;;;11.44;100.00;101161.25;10599216;27;20107;-79
2024/02/09 05:12:14;;;;;;;20.48;7.75;;;;;;;11.34;100.00;101165.50;10622230;27;20058;-80
2024/02/09 05:17:39;;;;;;;12.93;6.13;;;;;;;11.55;100.00;101168.53;10621940;27;20107;-80
2024/02/09 05:23:03;;;;;;;25.77;13.27;;;;;;;11.78;100.00;101168.09;10607239;27;20047;-80
2024/02/09 05:28:25;;;;;;;18.02;6.78;;;;;;;11.73;100.00;101172.38;10605060;27;20063;-80
2024/02/09 05:33:50;;;;;;;19.80;9.98;;;;;;;11.76;100.00;101185.66;10610351;27;20051;-80
2024/02/09 05:39:12;;;;;;;22.95;9.00;;;;;;;11.70;100.00;101188.16;10622508;27;20097;-81
2024/02/09 05:44:34;;;;;;;24.60;11.82;;;;;;;11.98;100.00;101203.69;10609040;27;20043;-81
2024/02/09 05:49:59;;;;;;;21.75;9.25;;;;;;;12.16;100.00;101211.03;10606947;27;20039;-80
2024/02/09 05:55:23;;;;;;;15.13;6.68;;;;;;;13.40;100.00;101196.91;10586451;27;20039;-79
2024/02/09 06:00:46;;;;;;;19.23;9.20;;;;;;;16.23;100.00;101201.13;10607058;27;20130;-81
2024/02/09 06:06:12;;;;;;;15.77;6.35;;;;;;;18.26;100.00;101202.00;10597562;27;20047;-80
2024/02/09 06:11:34;;;;;;;13.05;5.22;;;;;;;19.43;95.56;101214.09;10592734;27;20135;-80
2024/02/09 06:16:57;;;;;;;12.88;4.63;;;;;;;20.51;83.45;101217.84;10577941;27;20048;-81
2024/02/09 06:22:21;;;;;;;15.38;5.32;;;;;;;21.77;72.94;101218.84;10570693;28;20134;-81
2024/02/09 06:27:43;;;;;;;12.82;4.45;;;;;;;22.89;63.47;101230.41;10562861;28;20051;-80
2024/02/09 06:33:08;;;;;;;9.38;3.88;;;;;;;23.64;57.97;101223.72;10554607;28;20051;-81
2024/02/09 06:38:32;;;;;;;12.02;4.70;;;;;;;24.01;54.32;101234.25;10552057;28;20051;-82
2024/02/09 06:43:54;;;;;;;15.57;6.22;;;;;;;24.34;51.32;101240.38;10546880;28;20047;-81
2024/02/09 06:49:17;;;;;;;17.88;8.43;;;;;;;25.71;48.06;101248.00;10552903;28;20058;-81
2024/02/09 06:54:41;;;;;;;25.50;12.82;;;;;;;27.05;44.60;101263.16;10565804;28;20476;-82
2024/02/09 07:00:06;;;;;;;17.58;8.80;;;;;;;27.12;42.52;101259.25;10564057;28;20043;-80
2024/02/09 07:05:29;;;;;;;12.55;5.57;;;;;;;26.84;41.70;101254.16;10565465;28;20059;-82
2024/02/09 07:10:54;;;;;;;14.65;7.00;;;;;;;26.55;42.08;101259.00;10541791;28;20047;-83
2024/02/09 07:16:16;;;;;;;18.48;11.45;;;;;;;27.06;40.89;101262.22;10574334;27;20100;-82
2024/02/09 07:21:39;;;;;;;24.63;12.43;;;;;;;26.88;39.41;101253.06;10579588;27;20088;-83
2024/02/09 07:27:03;;;;;;;15.00;8.05;;;;;;;27.84;38.28;101257.69;10614977;27;20061;-83
2024/02/09 07:32:25;;;;;;;15.23;7.97;;;;;;;29.71;35.68;101254.28;10590076;27;20054;-82
2024/02/09 07:37:47;;;;;;;12.13;5.93;;;;;;;30.88;33.49;101254.72;10606119;27;20131;-83
2024/02/09 07:43:11;;;;;;;13.88;6.65;;;;;;;31.33;31.99;101258.31;10600845;28;20483;-84
2024/02/09 07:48:35;;;;;;;17.65;8.75;;;;;;;31.87;30.88;101256.66;10602685;28;20039;-84
2024/02/09 07:53:59;;;;;;;10.23;3.83;;;;;;;32.36;30.17;101257.91;10602201;28;20403;-81
2024/02/09 07:59:24;;;;;;;8.48;3.25;;;;;;;33.21;28.98;101262.97;10561083;28;20138;-81
2024/02/09 08:04:46;;;;;;;6.63;3.53;;;;;;;32.99;28.42;101270.06;10583529;28;20061;-81
2024/02/09 08:10:10;;;;;;;8.25;4.10;;;;;;;32.53;28.33;101273.19;10586656;28;20043;-80
2024/02/09 08:15:34;;;;;;;13.07;4.82;;;;;;;32.18;28.29;101275.56;10570885;28;20131;-82
2024/02/09 08:20:56;;;;;;;10.82;4.20;;;;;;;32.45;28.40;101267.38;10563745;27;20047;-85
2024/02/09 08:26:19;;;;;;;9.02;4.28;;;;;;;33.13;27.11;101273.59;10572107;27;20051;-84
2024/02/09 08:31:43;;;;;;;7.55;3.40;;;;;;;32.64;27.42;101275.19;10543000;28;20062;-85
2024/02/09 08:37:06;;;;;;;11.20;3.63;;;;;;;33.87;26.75;101267.31;10571256;27;20043;-84
2024/02/09 08:42:30;;;;;;;10.85;5.18;;;;;;;34.37;25.91;101269.06;10550929;28;20513;-85
2024/02/09 08:47:55;;;;;;;11.65;5.35;;;;;;;34.26;26.23;101268.16;10544165;28;20067;-84
2024/02/09 08:53:18;;;;;;;8.27;4.57;;;;;;;32.75;28.04;101272.66;10547080;28;20051;-84
2024/02/09 08:58:41;;;;;;;14.50;4.97;;;;;;;33.12;27.52;101281.91;10566400;28;20566;-85
2024/02/09 09:04:06;;;;;;;8.82;3.42;;;;;;;34.56;25.84;101271.28;10551663;28;20071;-84
2024/02/09 09:09:29;;;;;;;13.02;4.65;;;;;;;35.32;25.13;101270.81;10580653;28;20056;-84
2024/02/09 09:14:51;;;;;;;10.20;4.03;;;;;;;31.54;29.50;101276.06;10587184;27;20057;-84
2024/02/09 09:20:15;;;;;;;9.82;5.18;;;;;;;30.85;29.69;101263.94;10594005;27;20048;-84
2024/02/09 09:25:38;;;;;;;9.52;4.65;;;;;;;32.22;28.53;101255.25;10580205;28;20063;-84
2024/02/09 09:31:00;;;;;;;11.70;4.80;;;;;;;32.41;28.45;101250.31;10580421;28;20134;-84
2024/02/09 09:36:26;;;;;;;8.20;3.28;;;;;;;32.52;28.01;101248.69;10551541;27;20048;-84
2024/02/09 09:41:50;;;;;;;11.10;6.00;;;;;;;30.57;30.23;101239.34;10569420;27;20048;-84
2024/02/09 09:47:14;;;;;;;7.85;4.07;;;;;;;32.05;28.67;101239.94;10579982;28;20055;-84
2024/02/09 09:52:48;;;;;;;10.32;3.90;;;;;;;32.92;27.49;101241.38;10592919;27;20050;-84
2024/02/09 09:58:11;;;;;;;12.77;4.43;;;;;;;31.04;29.24;101244.63;10607663;27;20055;-85
2024/02/09 10:03:36;;;;;;;14.23;6.90;;;;;;;29.86;30.57;101233.50;10607326;27;20066;-84
2024/02/09 10:09:02;;;;;;;11.93;4.28;;;;;;;31.33;28.79;101234.63;10605764;27;20368;-84
2024/02/09 10:14:24;;;;;;;13.70;4.30;;;;;;;32.72;27.99;101226.34;10606305;27;20055;-84
2024/02/09 10:19:47;;;;;;;6.55;3.25;;;;;;;33.03;27.55;101223.19;10577189;28;20138;-85
2024/02/09 10:25:12;;;;;;;8.10;3.20;;;;;;;32.99;26.79;101210.72;10566076;27;20047;-85
2024/02/09 10:30:36;;;;;;;5.10;3.33;;;;;;;32.90;27.41;101200.44;10606533;27;20077;-85
2024/02/09 10:36:05;;;;;;;8.63;3.50;;;;;;;32.88;27.39;101198.81;10585867;27;20051;-85
2024/02/09 10:41:33;;;;;;;12.63;4.35;;;;;;;33.30;27.07;101203.97;10568059;27;20067;-85
2024/02/09 10:46:55;;;;;;;;;;;;;;;33.24;26.98;101198.94;10563763;28;20079;-85
2024/02/09 10:52:20;;;;;;;9.45;3.83;;;;;;;31.73;28.29;101191.13;10548808;28;19921;-84
2024/02/09 10:57:46;;;;;;;13.02;4.32;;;;;;;31.18;29.32;101197.38;10578617;27;20050;-84
2024/02/09 11:03:09;;;;;;;14.25;4.65;;;;;;;30.60;29.51;101190.06;10604588;27;20092;-84
2024/02/09 11:08:33;;;;;;;13.02;4.07;;;;;;;30.03;30.46;101176.22;10604061;27;20071;-84
2024/02/09 11:14:07;;;;;;;7.72;4.15;;;;;;;29.67;31.25;101173.75;10603776;27;20059;-83
2024/02/09 11:19:29;;;;;;;10.05;3.30;;;;;;;30.10;30.71;101169.44;10561193;28;20130;-84
2024/02/09 11:25:02;;;;;;;8.40;3.47;;;;;;;30.07;30.82;101164.16;10575531;28;20131;-84
2024/02/09 11:30:26;;;;;;;9.00;3.33;;;;;;;28.93;31.82;101156.16;10560616;28;20048;-84
2024/02/09 11:35:48;;;;;;;9.80;3.75;;;;;;;28.72;32.14;101160.88;10553857;28;20480;-84
2024/02/09 11:41:11;;;;;;;14.05;4.90;;;;;;;28.71;32.46;101150.06;10533071;28;20548;-83
2024/02/09 11:46:36;;;;;;;13.38;4.22;;;;;;;27.41;34.58;101153.03;10590690;28;20445;-82
2024/02/09 11:52:02;;;;;;;8.88;4.05;;;;;;;26.10;38.06;101152.59;10540749;28;20058;-83
2024/02/09 11:57:25;;;;;;;15.73;3.90;;;;;;;25.15;39.92;101146.53;10552518;27;20066;-81
2024/02/09 12:03:03;;;;;;;12.27;3.72;;;;;;;24.16;41.81;101150.06;10581275;27;20080;-85
2024/02/09 12:08:25;;;;;;;13.60;4.97;;;;;;;23.48;43.94;101141.56;10592524;27;20588;-83
2024/02/09 12:13:48;;;;;;;9.15;4.05;;;;;;;23.19;46.06;101148.69;10581667;27;20067;-82
2024/02/09 12:19:12;;;;;;;12.82;4.03;;;;;;;23.08;47.25;101150.84;10622014;27;20058;-85
2024/02/09 12:24:39;;;;;;;6.80;3.75;;;;;;;22.88;48.67;101151.44;10587868;27;20125;-87
2024/02/09 12:30:03;;;;;;;12.43;4.68;;;;;;;22.65;51.30;101146.66;10591247;27;20042;-86
2024/02/09 12:35:31;;;;;;;8.57;4.10;;;;;;;22.57;52.32;101147.81;10580413;27;20086;-85
2024/02/09 12:40:57;;;;;;;14.27;5.03;;;;;;;22.48;53.12;101158.81;10605021;27;20039;-83
2024/02/09 12:46:20;;;;;;;14.67;5.10;;;;;;;22.29;54.35;101153.03;10567424;27;20051;-83
2024/02/09 12:51:44;;;;;;;10.98;4.25;;;;;;;22.28;55.47;101151.28;10592650;27;20047;-85
2024/02/09 12:57:06;;;;;;;8.70;4.68;;;;;;;22.24;56.54;101146.91;10608331;27;20452;-85
2024/02/09 13:02:29;;;;;;;10.00;3.83;;;;;;;22.03;59.12;101147.47;10593109;27;20475;-85
2024/02/09 13:07:53;;;;;;;9.52;5.03;;;;;;;21.94;61.03;101143.16;10606839;27;20054;-86
2024/02/09 13:13:16;;;;;;;11.55;4.47;;;;;;;21.61;64.72;101130.53;10606614;27;20373;-85
2024/02/09 13:18:38;;;;;;;28.38;11.88;;;;;;;21.49;65.92;101139.78;10607062;27;20126;-89
2024/02/09 13:24:06;;;;;;;17.58;7.45;;;;;;;21.37;66.97;101132.88;10585693;27;20051;-89
2024/02/09 13:29:29;;;;;;;10.50;4.97;;;;;;;21.27;69.00;101128.63;10626144;27;20130;-86
2024/02/09 13:34:52;;;;;;;14.93;7.70;;;;;;;21.26;68.51;101131.38;10605010;27;20054;-87
2024/02/09 13:40:18;;;;;;;14.27;4.93;;;;;;;21.16;69.85;101133.34;10608865;27;20090;-83
2024/02/09 13:45:40;;;;;;;22.73;9.20;;;;;;;21.07;73.88;101130.81;10571148;27;20048;-82
2024/02/09 13:51:04;;;;;;;14.88;6.22;;;;;;;21.03;75.21;101124.66;10592242;27;20047;-83
2024/02/09 13:56:28;;;;;;;8.85;3.88;;;;;;;20.77;79.00;101136.84;10576031;27;20522;-83
2024/02/09 14:01:50;;;;;;;10.05;4.15;;;;;;;20.71;83.67;101132.50;10576544;27;20085;-83
2024/02/09 14:07:13;;;;;;;14.90;4.78;;;;;;;20.62;87.58;101133.56;10590660;27;20045;-83
2024/02/09 14:12:41;;;;;;;15.10;4.78;;;;;;;20.44;86.69;101143.75;10584931;27;20047;-84
2024/02/09 14:18:04;;;;;;;16.92;6.20;;;;;;;20.47;87.73;101157.13;10560021;27;20567;-84
2024/02/09 14:23:27;;;;;;;15.77;5.25;;;;;;;20.55;87.10;101161.41;10584319;27;20043;-85
2024/02/09 14:28:53;;;;;;;10.27;4.15;;;;;;;20.65;90.37;101159.44;10593470;27;20073;-88
2024/02/09 14:34:15;;;;;;;10.70;3.38;;;;;;;20.48;95.13;101159.75;10586517;27;20054;-85
2024/02/09 14:39:38;;;;;;;7.40;2.22;;;;;;;20.36;97.86;101165.34;10601029;27;20120;-87
2024/02/09 14:45:04;;;;;;;10.93;3.97;;;;;;;20.42;98.22;101167.03;10579035;27;20095;-86
2024/02/09 14:50:28;;;;;;;11.95;4.95;;;;;;;20.40;98.46;101163.50;10602869;27;20046;-84
2024/02/09 14:55:50;;;;;;;17.42;5.28;;;;;;;20.31;97.30;101159.16;10603287;27;20047;-85
2024/02/09 15:01:16;;;;;;;10.85;4.28;;;;;;;20.36;98.14;101168.03;10588465;27;20047;-85
2024/02/09 15:06:44;;;;;;;16.90;4.90;;;;;;;20.32;100.00;101158.25;10587280;27;20051;-84
2024/02/09 15:12:06;;;;;;;;;;;;;;;20.09;100.00;101165.78;10602923;27;20606;-83
2024/02/09 15:17:30;;;;;;;14.70;5.22;;;;;;;19.86;100.00;101177.78;10596117;27;19919;-85
2024/02/09 15:22:54;;;;;;;15.95;4.97;;;;;;;19.54;100.00;101180.09;10592452;27;20391;-83
2024/02/09 15:28:18;;;;;;;16.90;7.07;;;;;;;19.22;100.00;101196.56;10599939;27;20047;-83
2024/02/09 15:33:43;;;;;;;12.27;4.40;;;;;;;19.19;100.00;101203.72;10599804;27;20088;-82
2024/02/09 15:39:07;;;;;;;18.90;6.70;;;;;;;18.95;100.00;101195.09;10585340;27;20126;-85
2024/02/09 15:44:30;;;;;;;25.95;10.60;;;;;;;18.65;100.00;101211.47;10601496;28;20513;-88
2024/02/09 15:49:54;;;;;;;16.33;6.13;;;;;;;18.53;100.00;101211.56;10572376;28;20051;-81
2024/02/09 15:55:17;;;;;;;20.27;6.22;;;;;;;18.39;100.00;101211.69;10598112;28;20260;-81
2024/02/09 16:00:40;;;;;;;20.02;6.30;;;;;;;18.13;100.00;101206.59;10586306;28;20120;-83
2024/02/09 16:06:04;;;;;;;25.45;11.38;;;;;;;17.93;100.00;101222.75;10585345;28;20047;-85
2024/02/09 16:11:31;;;;;;;43.92;24.75;;;;;;;17.97;100.00;101223.66;10591547;28;20092;-80
2024/02/09 16:16:54;;;;;;;52.83;28.92;;;;;;;18.10;100.00;101240.47;10545615;28;20051;-81
2024/02/09 16:22:18;;;;;;;50.55;33.45;;;;;;;18.15;100.00;101242.22;10558225;28;20060;-81
2024/02/09 16:27:41;;;;;;;22.83;11.13;;;;;;;18.12;100.00;101257.34;10519965;28;20572;-81
2024/02/09 16:33:04;;;;;;;32.90;19.77;;;;;;;18.13;100.00;101261.81;10521966;28;20040;-86
2024/02/09 16:38:28;;;;;;;35.90;22.67;;;;;;;18.06;100.00;101266.31;10524153;28;20052;-85
2024/02/09 16:43:51;;;;;;;40.15;29.98;;;;;;;17.87;100.00;101267.31;10557448;28;20459;-88
2024/02/09 16:49:15;;;;;;;25.52;10.95;;;;;;;17.78;100.00;101262.06;10576191;27;20123;-85
2024/02/09 16:54:39;;;;;;;15.73;8.55;;;;;;;17.74;100.00;101276.31;10537556;28;20047;-83
2024/02/09 17:00:01;;;;;;;20.52;10.63;;;;;;;17.75;100.00;101270.97;10521593;28;20052;-83
2024/02/09 17:05:24;;;;;;;19.70;12.00;;;;;;;17.81;100.00;101288.75;10557166;28;20054;-81
2024/02/09 17:10:48;;;;;;;19.80;12.13;;;;;;;17.76;100.00;101287.88;10530011;28;20139;-79
2024/02/09 17:16:10;;;;;;;18.25;10.70;;;;;;;17.53;100.00;101307.53;10535018;28;20051;-82
2024/02/09 17:21:33;;;;;;;19.25;11.93;;;;;;;17.21;100.00;101303.19;10578284;28;20381;-83
2024/02/09 17:26:59;;;;;;;14.95;7.80;;;;;;;16.84;100.00;101303.28;10579616;28;20138;-84
2024/02/09 17:32:22;;;;;;;23.42;9.90;;;;;;;16.48;100.00;101312.16;10565025;28;20078;-84
2024/02/09 17:37:46;;;;;;;26.92;16.75;;;;;;;16.21;100.00;101318.34;10564257;28;20055;-82
2024/02/09 17:43:12;;;;;;;21.75;11.88;;;;;;;15.89;100.00;101312.94;10559768;28;20805;-85
2024/02/09 17:48:36;;;;;;;18.15;7.93;;;;;;;15.56;100.00;101320.81;10542678;28;20433;-83
2024/02/09 17:53:58;;;;;;;19.52;12.18;;;;;;;15.61;100.00;101315.53;10569949;28;20055;-88
2024/02/09 17:59:22;;;;;;;20.45;11.80;;;;;;;15.70;100.00;101319.09;10563651;28;20075;-86
2024/02/09 18:04:45;;;;;;;19.00;11.00;;;;;;;15.60;100.00;101311.97;10570148;28;20388;-84
2024/02/09 18:10:07;;;;;;;21.58;8.35;;;;;;;15.79;100.00;101320.91;10574745;27;20508;-84
2024/02/09 18:15:31;;;;;;;21.70;10.02;;;;;;;16.01;100.00;101329.88;10585198;27;20055;-83
2024/02/09 18:20:54;;;;;;;22.50;10.00;;;;;;;16.01;100.00;101332.53;10610583;27;20043;-82
2024/02/09 18:26:17;;;;;;;27.58;16.02;;;;;;;15.99;100.00;101343.16;10591259;27;20047;-82
2024/02/09 18:31:41;;;;;;;23.10;13.57;;;;;;;15.86;100.00;101344.00;10592561;27;20050;-79
2024/02/09 18:37:04;;;;;;;18.52;11.90;;;;;;;15.64;100.00;101356.34;10594423;27;20494;-78
2024/02/09 18:42:30;;;;;;;19.00;9.15;;;;;;;15.55;100.00;101356.31;10583105;27;20039;-80
2024/02/09 18:47:54;;;;;;;16.85;8.25;;;;;;;15.52;100.00;101348.28;10580310;27;20042;-78
2024/02/09 18:53:16;;;;;;;22.77;11.88;;;;;;;15.30;100.00;101357.00;10599197;27;20070;-79
2024/02/09 18:58:39;;;;;;;22.02;10.88;;;;;;;15.08;100.00;101367.53;10588831;27;20050;-79
2024/02/09 19:04:03;;;;;;;23.05;13.98;;;;;;;14.90;100.00;101371.84;10605991;27;20046;-78
2024/02/09 19:09:25;;;;;;;18.48;9.63;;;;;;;14.48;100.00;101370.59;10602324;27;20070;-78
2024/02/09 19:14:48;;;;;;;16.80;7.97;;;;;;;14.15;100.00;101352.50;10627174;27;20046;-80
2024/02/09 19:20:14;;;;;;;16.20;6.78;;;;;;;13.94;100.00;101370.84;10601250;27;20047;-81
2024/02/09 19:25:36;;;;;;;14.55;8.13;;;;;;;14.02;100.00;101361.22;10613299;27;20054;-78
2024/02/09 19:30:59;;;;;;;14.00;6.60;;;;;;;13.98;100.00;101369.16;10591564;27;20138;-79
2024/02/09 19:36:23;;;;;;;14.25;6.95;;;;;;;13.77;100.00;101369.78;10600801;27;20133;-80
2024/02/09 19:41:46;;;;;;;19.23;9.93;;;;;;;13.64;100.00;101374.03;10604979;27;20047;-81
2024/02/09 19:47:08;;;;;;;25.30;13.27;;;;;;;13.53;100.00;101379.19;10594439;27;20055;-78
2024/02/09 19:52:32;;;;;;;22.27;13.07;;;;;;;13.35;100.00;101381.59;10601809;27;20054;-79
2024/02/09 19:57:57;;;;;;;17.25;6.93;;;;;;;13.23;100.00;101385.81;10618461;27;20487;-79
2024/02/09 20:03:20;;;;;;;18.80;8.50;;;;;;;13.18;100.00;101391.06;10611257;27;20039;-79
2024/02/09 20:08:44;;;;;;;12.90;7.50;;;;;;;13.14;100.00;101405.13;10619070;27;20156;-79
2024/02/09 20:14:08;;;;;;;52.42;44.75;;;;;;;13.30;100.00;101391.25;10583296;27;20449;-80
2024/02/09 20:19:31;;;;;;;25.77;11.93;;;;;;;13.16;100.00;101392.78;10579666;28;20085;-80
2024/02/09 20:24:55;;;;;;;21.33;7.13;;;;;;;13.10;100.00;101385.59;10582307;28;20051;-79
2024/02/09 20:30:18;;;;;;;58.42;36.65;;;;;;;13.41;100.00;101386.09;10590053;27;20062;-80
2024/02/09 20:35:45;;;;;;;15.18;7.22;;;;;;;13.12;100.00;101393.59;10525385;27;20076;-79
2024/02/09 20:41:09;;;;;;;14.13;6.90;;;;;;;12.88;100.00;101393.19;10541864;27;20032;-80
2024/02/09 20:46:32;;;;;;;15.55;6.55;;;;;;;12.98;100.00;101382.78;10544793;27;20047;-80
2024/02/09 20:51:55;;;;;;;18.88;8.13;;;;;;;13.06;100.00;101377.59;10542647;27;20135;-79
2024/02/09 20:57:19;;;;;;;18.92;6.93;;;;;;;13.09;100.00;101377.63;10570632;27;20112;-79
2024/02/09 21:02:41;;;;;;;13.15;6.13;;;;;;;12.89;100.00;101365.81;10567064;27;20039;-79
2024/02/09 21:08:04;;;;;;;14.02;6.57;;;;;;;12.98;100.00;101371.28;10561936;27;20059;-80
2024/02/09 21:13:28;;;;;;;17.88;7.32;;;;;;;12.68;100.00;101367.25;10586205;27;20047;-79
2024/02/09 21:18:51;;;;;;;17.02;10.20;;;;;;;12.51;100.00;101370.50;10585777;27;20051;-79
2024/02/09 21:24:14;;;;;;;16.63;8.82;;;;;;;12.48;100.00;101368.66;10591635;27;20439;-79
2024/02/09 21:29:38;;;;;;;16.40;8.50;;;;;;;12.40;100.00;101364.13;10605795;27;20047;-78
2024/02/09 21:35:02;;;;;;;23.55;9.32;;;;;;;12.30;100.00;101365.69;10590919;27;20047;-81
2024/02/09 21:40:25;;;;;;;20.67;8.57;;;;;;;12.19;100.00;101360.22;10608467;27;20134;-81
2024/02/09 21:45:49;;;;;;;17.83;9.15;;;;;;;12.10;100.00;101365.34;10606694;27;20046;-81
2024/02/09 21:51:14;;;;;;;18.50;10.23;;;;;;;12.02;100.00;101350.16;10609314;27;20043;-82
2024/02/09 21:56:37;;;;;;;21.05;10.38;;;;;;;12.01;100.00;101345.75;10611653;27;20051;-82
2024/02/09 22:02:01;;;;;;;15.27;8.50;;;;;;;12.00;100.00;101344.88;10584751;27;20455;-82
2024/02/09 22:07:23;;;;;;;14.90;8.55;;;;;;;11.92;100.00;101336.78;10606080;27;20499;-82
2024/02/09 22:12:49;;;;;;;17.20;9.23;;;;;;;11.91;100.00;101332.34;10609956;27;20047;-80
2024/02/09 22:18:13;;;;;;;23.83;11.50;;;;;;;11.85;100.00;101329.59;10588112;27;20138;-80
2024/02/09 22:23:42;;;;;;;18.33;9.63;;;;;;;11.86;100.00;101328.72;10588484;27;20051;-78
2024/02/09 22:29:06;;;;;;;17.48;9.68;;;;;;;11.86;100.00;101334.00;10578761;27;20047;-80
2024/02/09 22:34:32;;;;;;;27.33;15.68;;;;;;;11.88;100.00;101336.69;10586164;27;20071;-80
2024/02/09 22:39:54;;;;;;;18.80;11.00;;;;;;;11.71;100.00;101330.13;10582421;27;20066;-79
2024/02/09 22:45:20;;;;;;;22.55;12.32;;;;;;;11.71;100.00;101324.84;10579071;27;20044;-80
2024/02/09 22:50:44;;;;;;;17.60;11.82;;;;;;;11.67;100.00;101334.47;10589592;27;20085;-79
2024/02/09 22:56:07;;;;;;;29.00;17.05;;;;;;;11.60;100.00;101348.44;10556312;27;20482;-79
2024/02/09 23:01:30;;;;;;;17.58;10.30;;;;;;;11.43;100.00;101342.78;10556473;27;20054;-79
2024/02/09 23:06:55;;;;;;;22.65;9.82;;;;;;;11.29;100.00;101346.88;10583330;27;20096;-79
2024/02/09 23:12:18;;;;;;;32.97;16.58;;;;;;;11.18;100.00;101333.44;10561992;27;20047;-79
2024/02/09 23:17:47;;;;;;;25.15;11.80;;;;;;;11.39;100.00;101329.47;10551183;28;20542;-79
2024/02/09 23:23:11;;;;;;;17.77;11.43;;;;;;;11.42;100.00;101325.13;10552225;28;20051;-80
2024/02/09 23:28:34;;;;;;;21.85;10.43;;;;;;;11.34;100.00;101325.84;10559546;28;20047;-79
2024/02/09 23:33:56;;;;;;;18.00;9.98;;;;;;;11.28;100.00;101334.53;10568602;28;20510;-79
2024/02/09 23:39:20;;;;;;;16.90;9.50;;;;;;;11.22;100.00;101338.78;10522935;28;20059;-80
2024/02/09 23:44:43;;;;;;;27.27;14.32;;;;;;;11.10;100.00;101345.56;10556377;28;20035;-79
2024/02/09 23:50:07;;;;;;;23.25;11.80;;;;;;;10.81;100.00;101345.75;10570038;28;20051;-78
2024/02/09 23:55:31;;;;;;;22.10;10.70;;;;;;;11.01;100.00;101339.19;10557207;28;20051;-78
